Носовка

Карта отелей и гостиниц, располагающихся рядом с аэропортом Носовка :

Носовка
Бобруйск
Могилёвская область 53° 6' 6.0012" N, 29° 12' 13.5" E
Код аэродрома ИКАО
UMNB
Код аэродрома RU
УМНБ
Координаты
N53.10167° E029.20375°
Превышение над уровнем моря
152
Основная полоса
08L/26R
Курс магнитный
074,8/254,8
Длина основной ВПП
3000
Ширина основной ВПП
52
Покрытие основной ВПП
Твёрдое (бетон)
Освещение ВПП
Нет
Тип: 
Аэродром
Класс аэродрома: 
Принадлежность: 
МО
Статус: 
Действующий
Сайт: 
E-mail аэродрома: 
Страна: 
Беларусь
Регион: 
Могилёвская область
Город: 
Бобруйск
Дополнительная информация: 
Оператор: ВВС РБ. Оперативный аэродром подскока. Военный индекс: XMNB / ЬМНБ. Планируется размещение авиабазы ВКС России.

Найти трансфер

С помощью этой формы Вы можете найти трансфер из аэропорта Носовка в город, аэропорт или вокзал:

Погода в аэропортах:

Авиационная погода в Гродно

Регион: 
Погода METAR: 
UMMG 300400Z 03002MPS 5000 BR NSC 19/18 Q1015 NOSIG
Время наблюдения
2022-06-30T04:00:00Z
Температура C
19.0
Точка росы
18.0
Направление ветра
30
Скорость ветра (узлы)
4
Метео видимость
3.11
Облачность
CLR
Нижняя граница облачности (футы)
Явления погоды
BR
Условия полета
MVFR
Аэропорт подробнее: 
CLR — нет облаков ниже 3000 м
BR – дымка (видимость от 1 до 9 км);

Авиационная погода в Ханты-Мансийске

Регион: 
Погода METAR: 
USHH 282200Z 29001MPS 4400 -SHRA BR BKN003CB 10/10 Q0996 R24/290050 TEMPO 1000 SHRA BR OVC002CB
Время наблюдения
2022-06-28T22:00:00Z
Температура C
10.0
Точка росы
10.0
Направление ветра
290
Скорость ветра (узлы)
2
Метео видимость
2.73
Облачность
BKN
Нижняя граница облачности (футы)
300
Явления погоды
-SHRA BR
Условия полета
LIFR
Аэропорт подробнее: 
BKN – значительная (рассеянная, разорванная) облачность;
-SHRA - слабый ливневой дождь; BR – дымка (видимость от 1 до 9 км);

Авиационная погода в Бухте Провидения

Погода METAR: 
UHMD 282200Z 20004MPS 2500 BR OVC003 06/05 Q1018 RMK QBB110 MT OBSC QFE763/1017
Время наблюдения
2022-06-28T22:00:00Z
Температура C
6.0
Точка росы
5.0
Направление ветра
200
Скорость ветра (узлы)
8
Метео видимость
1.55
Облачность
OVC
Нижняя граница облачности (футы)
300
Явления погоды
BR
Условия полета
LIFR
Аэропорт подробнее: 
OVC – сплошная облачность;
BR – дымка (видимость от 1 до 9 км);

Авиационная погода в Архангельске

Регион: 
Погода METAR: 
ULAA 282200Z 00000MPS 9999 MIFG NSC 06/06 Q1028 R26/CLRD70 NOSIG RMK QFE769/1026
Время наблюдения
2022-06-28T22:00:00Z
Температура C
6.0
Точка росы
6.0
Направление ветра
0
Скорость ветра (узлы)
0
Метео видимость
6.21
Облачность
CLR
Нижняя граница облачности (футы)
Явления погоды
MIFG
Условия полета
VFR
Аэропорт подробнее: 
CLR — нет облаков ниже 3000 м
MIFG - туман поземный;